Time;durP1;ratioP1;P1;durP2;ratioP2;P2;SDS_P1;SDS_P2;PMS_P1;PMS_P2;Temp;Humidity;BMP_temperature;BMP_pressure;BME280_temperature;BME280_humidity;BME280_pressure;Samples;Min_cycle;Max_cycle;Signal;HPM_P1;HPM_P2
2023/04/14 00:03:34;;;;;;;10.82;8.23;;;;;;;4.81;100.00;100929.78;10266555;28;20538;-73
2023/04/14 00:08:34;;;;;;;10.55;8.02;;;;;;;4.73;100.00;100928.41;10257761;28;20052;-74
2023/04/14 00:13:31;;;;;;;11.60;8.50;;;;;;;4.68;100.00;100936.53;10250911;28;20421;-74
2023/04/14 00:18:27;;;;;;;10.35;8.18;;;;;;;4.61;100.00;100933.31;10262185;28;20041;-74
2023/04/14 00:23:24;;;;;;;12.73;9.35;;;;;;;4.61;100.00;100933.31;10262521;28;20052;-74
2023/04/14 00:28:20;;;;;;;12.25;8.93;;;;;;;4.50;100.00;100939.81;10266385;28;20135;-74
2023/04/14 00:33:17;;;;;;;10.75;8.13;;;;;;;4.49;100.00;100947.13;10264879;28;20084;-74
2023/04/14 00:38:13;;;;;;;10.23;7.50;;;;;;;4.42;100.00;100950.09;10260827;28;20119;-74
2023/04/14 00:43:10;;;;;;;15.02;8.68;;;;;;;4.36;100.00;100962.03;10268243;28;20148;-76
2023/04/14 00:48:08;;;;;;;11.88;8.00;;;;;;;4.34;100.00;100961.50;10263170;28;20075;-72
2023/04/14 00:53:04;;;;;;;9.82;7.93;;;;;;;4.32;100.00;100954.72;10255154;28;20072;-72
2023/04/14 00:58:02;;;;;;;10.10;8.32;;;;;;;4.24;100.00;100958.75;10273708;28;20053;-72
2023/04/14 01:02:59;;;;;;;9.65;7.82;;;;;;;4.22;100.00;100966.34;10262989;28;20053;-72
2023/04/14 01:07:56;;;;;;;11.57;9.35;;;;;;;4.20;100.00;100968.50;10253946;28;20067;-72
2023/04/14 01:13:12;;;;;;;12.95;7.97;;;;;;;4.13;100.00;100974.19;10261404;28;20457;-71
2023/04/14 01:18:18;;;;;;;11.90;7.90;;;;;;;4.08;100.00;100968.75;10258225;28;20521;-69
2023/04/14 01:23:22;;;;;;;11.95;8.75;;;;;;;4.02;100.00;100960.91;10253666;28;20671;-76
2023/04/14 01:28:41;;;;;;;11.57;8.55;;;;;;;3.92;100.00;100962.50;10259946;28;20049;-72
2023/04/14 01:33:41;;;;;;;11.40;8.70;;;;;;;3.89;100.00;100973.84;10249098;28;20136;-76
2023/04/14 01:38:41;;;;;;;11.50;8.32;;;;;;;3.83;100.00;100974.94;10260372;28;20116;-74
2023/04/14 01:43:41;;;;;;;11.30;8.18;;;;;;;3.82;100.00;100975.19;10252655;28;20133;-73
2023/04/14 01:48:40;;;;;;;12.80;9.05;;;;;;;3.80;100.00;100970.03;10264352;28;20117;-73
2023/04/14 01:53:41;;;;;;;12.43;8.45;;;;;;;3.70;100.00;100978.13;10259310;28;20049;-75
2023/04/14 01:58:41;;;;;;;11.02;8.38;;;;;;;3.63;100.00;100972.16;10256945;28;20049;-75
2023/04/14 02:03:39;;;;;;;13.70;9.35;;;;;;;3.59;100.00;100972.66;10268569;28;20171;-75
2023/04/14 02:08:40;;;;;;;11.65;9.55;;;;;;;3.56;100.00;100975.91;10260929;28;20068;-75
2023/04/14 02:13:40;;;;;;;12.88;9.45;;;;;;;3.57;100.00;100982.97;10262088;28;20558;-70
2023/04/14 02:18:38;;;;;;;16.83;10.68;;;;;;;3.48;100.00;100973.72;10259847;28;20645;-70
2023/04/14 02:23:35;;;;;;;12.75;9.15;;;;;;;3.46;100.00;100978.59;10258711;28;20057;-70
2023/04/14 02:28:35;;;;;;;10.88;8.13;;;;;;;3.40;100.00;100971.53;10252871;28;20140;-70
2023/04/14 02:33:35;;;;;;;10.63;8.45;;;;;;;3.38;100.00;100976.38;10261939;28;20301;-70
2023/04/14 02:38:36;;;;;;;12.02;8.65;;;;;;;3.38;100.00;100989.88;10258168;28;20530;-71
2023/04/14 02:43:41;;;;;;;13.32;8.90;;;;;;;3.33;100.00;100997.97;10258224;28;20415;-71
2023/04/14 02:48:41;;;;;;;13.75;8.93;;;;;;;3.34;100.00;101002.28;10268401;28;20056;-72
2023/04/14 02:53:38;;;;;;;12.10;8.77;;;;;;;3.34;100.00;101005.00;10259099;28;20051;-71
2023/04/14 02:58:37;;;;;;;11.75;8.70;;;;;;;3.33;100.00;101006.09;10249505;28;20045;-73
2023/04/14 03:03:36;;;;;;;12.27;9.50;;;;;;;3.32;100.00;101007.97;10247595;28;20057;-71
2023/04/14 03:08:34;;;;;;;10.70;8.88;;;;;;;3.25;100.00;101006.56;10259821;28;20049;-72
2023/04/14 03:13:33;;;;;;;10.07;8.43;;;;;;;3.27;100.00;101004.41;10259537;28;20065;-71
2023/04/14 03:18:31;;;;;;;10.23;8.65;;;;;;;3.20;100.00;101009.25;10267102;28;20053;-73
2023/04/14 03:23:32;;;;;;;12.07;8.85;;;;;;;3.17;100.00;101005.97;10260267;28;20516;-73
2023/04/14 03:28:32;;;;;;;11.32;8.55;;;;;;;3.15;100.00;101018.13;10264358;28;20083;-73
2023/04/14 03:33:36;;;;;;;11.05;8.50;;;;;;;3.10;100.00;101016.22;10263121;28;20061;-73
2023/04/14 03:38:35;;;;;;;12.05;8.50;;;;;;;3.08;100.00;101021.06;10272705;28;20096;-72
2023/04/14 03:43:32;;;;;;;11.82;9.35;;;;;;;3.08;100.00;101018.34;10269084;28;20068;-72
2023/04/14 03:48:33;;;;;;;12.20;9.50;;;;;;;3.03;100.00;101010.22;10269322;28;20087;-72
2023/04/14 03:53:33;;;;;;;12.05;9.60;;;;;;;3.00;100.00;101013.47;10263832;28;20075;-73
2023/04/14 03:58:30;;;;;;;14.98;9.65;;;;;;;2.98;100.00;101012.91;10270329;28;20068;-73
2023/04/14 04:03:28;;;;;;;11.07;9.32;;;;;;;2.98;100.00;101021.00;10260988;28;20049;-72
2023/04/14 04:08:25;;;;;;;12.93;9.00;;;;;;;2.95;100.00;101018.81;10258940;28;20054;-73
2023/04/14 04:13:23;;;;;;;11.15;9.10;;;;;;;2.95;100.00;101026.94;10262372;28;20052;-74
2023/04/14 04:23:53;;;;;;;15.02;9.63;;;;;;;2.92;100.00;101040.94;2536368;26;20062;-74
2023/04/14 04:28:50;;;;;;;12.63;8.88;;;;;;;2.91;100.00;101047.41;10172670;28;20074;-72
2023/04/14 04:33:47;;;;;;;14.35;8.93;;;;;;;2.90;100.00;101053.88;10183060;28;20100;-70
2023/04/14 04:38:57;;;;;;;12.15;9.38;;;;;;;2.89;100.00;101049.56;10184988;28;20053;-71
2023/04/14 04:43:55;;;;;;;12.38;9.23;;;;;;;2.94;100.00;101041.50;10185960;28;20092;-72
2023/04/14 04:48:54;;;;;;;13.63;9.48;;;;;;;2.95;100.00;101040.44;10188577;28;20049;-68
2023/04/14 04:53:51;;;;;;;10.13;8.57;;;;;;;2.94;100.00;101044.19;10189033;28;20160;-68
2023/04/14 04:58:47;;;;;;;11.98;9.02;;;;;;;2.97;100.00;101041.00;10186551;28;20393;-68
2023/04/14 05:03:44;;;;;;;10.23;9.00;;;;;;;2.98;100.00;101033.69;10180730;28;20070;-68
2023/04/14 05:08:41;;;;;;;9.63;8.60;;;;;;;2.99;100.00;101033.41;10180888;28;20141;-67
2023/04/14 05:13:38;;;;;;;12.60;8.48;;;;;;;3.06;100.00;101031.31;10181441;28;20081;-67
2023/04/14 05:18:35;;;;;;;13.05;8.98;;;;;;;3.10;100.00;101035.13;10186657;28;20496;-68
2023/04/14 05:23:32;;;;;;;12.75;9.55;;;;;;;3.16;100.00;101033.28;10166701;28;20108;-68
2023/04/14 05:28:29;;;;;;;10.93;9.10;;;;;;;3.35;100.00;101041.78;10177634;28;20056;-68
2023/04/14 05:33:26;;;;;;;11.27;9.02;;;;;;;3.42;100.00;101042.34;10180611;28;20053;-68
2023/04/14 05:38:22;;;;;;;11.93;9.60;;;;;;;3.53;100.00;101041.34;10179953;28;20672;-68
2023/04/14 05:43:19;;;;;;;11.65;9.18;;;;;;;3.70;100.00;101040.31;10171851;28;20081;-68
2023/04/14 05:48:16;;;;;;;11.32;9.05;;;;;;;3.79;100.00;101049.56;10183139;28;20042;-68
2023/04/14 05:53:14;;;;;;;10.05;8.63;;;;;;;3.86;100.00;101052.84;10183903;28;20116;-68
2023/04/14 05:58:11;;;;;;;11.93;8.80;;;;;;;3.97;100.00;101049.09;10178199;28;20145;-68
2023/04/14 06:03:07;;;;;;;12.20;9.30;;;;;;;4.07;100.00;101055.63;10174444;28;20074;-68
2023/04/14 06:08:04;;;;;;;13.32;9.40;;;;;;;4.15;100.00;101058.59;10180788;28;20057;-67
2023/04/14 06:13:01;;;;;;;12.82;10.00;;;;;;;4.26;100.00;101061.34;10184800;28;20050;-68
2023/04/14 06:17:57;;;;;;;12.02;9.50;;;;;;;4.38;100.00;101062.72;10179107;28;20053;-68
2023/04/14 06:22:54;;;;;;;12.15;10.20;;;;;;;4.49;100.00;101068.19;10182268;28;20146;-68
2023/04/14 06:27:50;;;;;;;11.20;9.80;;;;;;;4.62;100.00;101056.81;10178664;28;20420;-67
2023/04/14 06:32:50;;;;;;;12.93;9.60;;;;;;;4.74;100.00;101060.06;10183874;28;20053;-68
2023/04/14 06:37:46;;;;;;;11.43;9.65;;;;;;;4.78;100.00;101058.47;10184236;28;20085;-68
2023/04/14 06:42:43;;;;;;;15.13;10.57;;;;;;;4.87;100.00;101063.31;10182535;28;20136;-68
2023/04/14 06:47:39;;;;;;;13.98;10.25;;;;;;;4.93;100.00;101054.13;10182688;28;20134;-67
2023/04/14 06:52:36;;;;;;;14.98;10.85;;;;;;;4.98;100.00;101045.97;10191026;28;20048;-68
2023/04/14 06:57:32;;;;;;;12.75;10.68;;;;;;;5.09;100.00;101061.16;10188675;28;20092;-68
2023/04/14 07:02:28;;;;;;;13.88;10.68;;;;;;;5.22;100.00;101049.75;10190039;28;20137;-68
2023/04/14 07:07:25;;;;;;;13.43;10.80;;;;;;;5.36;100.00;101050.00;10183394;28;20056;-68
2023/04/14 07:12:21;;;;;;;14.95;9.45;;;;;;;5.50;100.00;101050.25;10188518;28;20061;-68
2023/04/14 07:17:18;;;;;;;14.88;10.75;;;;;;;5.69;100.00;101048.53;10186385;28;20069;-68
2023/04/14 07:22:15;;;;;;;12.18;10.32;;;;;;;5.91;100.00;101055.50;10189796;28;20515;-68
2023/04/14 07:27:13;;;;;;;11.07;8.60;;;;;;;6.04;100.00;101049.50;10188346;28;20046;-68
2023/04/14 07:32:12;;;;;;;13.48;10.05;;;;;;;6.21;100.00;101051.06;10182281;28;20069;-68
2023/04/14 07:37:09;;;;;;;12.73;9.30;;;;;;;6.35;100.00;101043.91;10184556;28;20514;-69
2023/04/14 07:42:06;;;;;;;11.90;9.63;;;;;;;6.52;100.00;101051.66;10187070;28;20050;-68
2023/04/14 07:47:02;;;;;;;14.93;10.15;;;;;;;6.66;100.00;101060.00;10184053;28;20050;-68
2023/04/14 07:52:00;;;;;;;12.50;8.68;;;;;;;6.79;100.00;101053.91;10189365;28;20569;-68
2023/04/14 07:56:56;;;;;;;17.35;10.70;;;;;;;6.97;100.00;101054.34;10190549;28;20547;-69
2023/04/14 08:01:53;;;;;;;19.08;9.00;;;;;;;7.16;100.00;101057.94;10189299;28;20576;-68
2023/04/14 08:06:50;;;;;;;11.30;7.53;;;;;;;7.41;100.00;101053.38;10182416;28;20050;-68
2023/04/14 08:11:46;;;;;;;7.82;6.40;;;;;;;7.71;100.00;101057.66;10180448;28;20069;-69
2023/04/14 08:16:42;;;;;;;10.60;5.60;;;;;;;8.04;100.00;101044.97;10180971;28;20061;-68
2023/04/14 08:21:39;;;;;;;9.25;5.78;;;;;;;8.39;100.00;101053.78;10186755;28;20054;-68
2023/04/14 08:26:36;;;;;;;8.27;5.20;;;;;;;8.72;100.00;101056.56;10186120;28;20164;-68
2023/04/14 08:31:32;;;;;;;7.13;4.45;;;;;;;8.98;100.00;101041.44;10183847;28;20053;-68
2023/04/14 08:36:30;;;;;;;9.15;5.07;;;;;;;9.23;100.00;101053.78;10182600;28;20574;-68
2023/04/14 08:41:27;;;;;;;8.07;5.28;;;;;;;9.46;100.00;101062.91;10187043;28;20054;-68
2023/04/14 08:46:26;;;;;;;13.82;5.13;;;;;;;9.58;100.00;101053.44;10181908;28;20053;-68
2023/04/14 08:51:38;;;;;;;9.50;5.10;;;;;;;9.88;100.00;101058.28;10184663;28;20189;-67
2023/04/14 08:56:40;;;;;;;8.05;5.15;;;;;;;10.03;100.00;101064.56;10190869;28;20049;-68
2023/04/14 09:01:37;;;;;;;;;;;;;;;10.19;100.00;101060.38;10185977;28;20049;-68
2023/04/14 09:06:34;;;;;;;9.82;5.03;;;;;;;10.31;100.00;101051.66;10186065;28;19937;-68
2023/04/14 09:11:30;;;;;;;9.55;4.60;;;;;;;10.60;100.00;101048.53;10178135;28;20061;-68
2023/04/14 09:16:27;;;;;;;8.88;5.43;;;;;;;10.67;100.00;101051.63;10173210;28;20056;-68
2023/04/14 09:21:26;;;;;;;10.82;7.68;;;;;;;10.81;100.00;101053.50;10183159;28;20050;-66
2023/04/14 09:26:42;;;;;;;7.80;4.43;;;;;;;10.82;100.00;101050.47;10178072;28;20054;-66
2023/04/14 09:31:39;;;;;;;5.20;4.50;;;;;;;11.11;100.00;101043.72;10170884;28;20149;-67
2023/04/14 09:36:36;;;;;;;10.88;5.20;;;;;;;11.19;100.00;101050.38;10181914;28;20570;-67
2023/04/14 09:41:33;;;;;;;9.23;4.53;;;;;;;11.54;100.00;101052.16;10180628;28;20072;-67
2023/04/14 09:46:29;;;;;;;5.63;4.60;;;;;;;11.36;100.00;101061.41;10183791;28;20126;-67
2023/04/14 09:51:28;;;;;;;10.15;6.00;;;;;;;11.39;100.00;101071.72;10184978;28;20081;-67
2023/04/14 09:56:26;;;;;;;6.45;5.10;;;;;;;11.62;100.00;101058.78;10193609;28;20049;-67
2023/04/14 10:01:29;;;;;;;8.60;5.55;;;;;;;12.03;100.00;101056.84;10185932;28;20084;-67
2023/04/14 10:06:26;;;;;;;9.93;5.03;;;;;;;12.21;100.00;101056.56;10177587;28;20169;-67
2023/04/14 10:11:31;;;;;;;7.72;5.70;;;;;;;12.48;100.00;101056.56;10184217;28;20050;-67
2023/04/14 10:16:28;;;;;;;7.78;4.63;;;;;;;12.85;100.00;101053.16;10179060;28;20420;-68
2023/04/14 10:21:26;;;;;;;7.38;5.40;;;;;;;12.82;100.00;101050.25;10179563;28;20140;-67
2023/04/14 10:26:26;;;;;;;8.10;5.00;;;;;;;13.28;100.00;101045.19;10175219;28;20495;-67
2023/04/14 10:31:33;;;;;;;8.02;5.50;;;;;;;13.39;100.00;101043.69;10184829;28;20068;-66
2023/04/14 10:36:30;;;;;;;15.90;5.72;;;;;;;13.45;100.00;101034.13;10190172;28;20424;-67
2023/04/14 10:41:44;;;;;;;8.38;4.93;;;;;;;13.85;100.00;101039.28;10186104;28;20054;-67
2023/04/14 10:46:43;;;;;;;7.82;5.05;;;;;;;14.09;100.00;101031.22;10186778;28;20694;-67
2023/04/14 10:51:40;;;;;;;8.27;5.35;;;;;;;14.09;100.00;101025.72;10190588;28;20140;-67
2023/04/14 10:56:37;;;;;;;5.90;5.30;;;;;;;14.84;100.00;101024.94;10195817;28;20056;-67
2023/04/14 11:01:34;;;;;;;7.53;5.35;;;;;;;14.22;100.00;101014.78;10182664;28;20124;-67
2023/04/14 11:06:46;;;;;;;6.43;5.10;;;;;;;14.34;100.00;101012.09;10188042;28;20084;-67
2023/04/14 11:11:43;;;;;;;11.00;6.60;;;;;;;14.28;100.00;101016.19;10184394;28;20133;-67
2023/04/14 11:16:40;;;;;;;6.60;4.90;;;;;;;14.20;100.00;101019.81;10176995;28;20068;-67
2023/04/14 11:21:54;;;;;;;6.20;5.47;;;;;;;14.23;100.00;101019.94;10185263;28;20058;-67
2023/04/14 11:26:52;;;;;;;7.88;5.50;;;;;;;13.84;100.00;101024.72;10179462;28;20141;-67
2023/04/14 11:32:05;;;;;;;7.47;5.85;;;;;;;13.87;100.00;101023.25;10184177;28;20125;-67
2023/04/14 11:37:02;;;;;;;9.52;6.20;;;;;;;14.05;100.00;101013.75;10178384;28;20050;-67
2023/04/14 11:41:59;;;;;;;8.57;5.50;;;;;;;13.35;100.00;101018.03;10187705;28;20140;-67
2023/04/14 11:46:55;;;;;;;6.07;5.47;;;;;;;13.15;100.00;101006.59;10187203;28;20054;-68
2023/04/14 11:51:55;;;;;;;8.63;5.18;;;;;;;12.93;100.00;101012.31;10185562;28;20082;-67
2023/04/14 11:56:51;;;;;;;8.45;4.90;;;;;;;13.37;100.00;101010.28;10182222;28;20464;-67
2023/04/14 12:01:50;;;;;;;6.38;5.47;;;;;;;13.31;100.00;101014.34;10186982;28;20081;-67
2023/04/14 12:06:46;;;;;;;7.47;5.68;;;;;;;13.17;100.00;101000.78;10174246;28;20064;-67
2023/04/14 12:11:53;;;;;;;6.05;5.50;;;;;;;13.05;100.00;100998.72;10182921;28;20054;-67
2023/04/14 12:16:50;;;;;;;7.63;5.68;;;;;;;13.15;100.00;101003.84;10182789;28;20054;-67
2023/04/14 12:21:51;;;;;;;10.30;6.20;;;;;;;13.37;100.00;101004.78;10183409;28;20077;-67
2023/04/14 12:26:48;;;;;;;7.93;6.50;;;;;;;13.10;100.00;101006.78;10180594;28;20133;-67
2023/04/14 12:31:45;;;;;;;6.75;6.10;;;;;;;13.29;100.00;101000.91;10187138;28;20053;-68
2023/04/14 12:36:49;;;;;;;7.28;6.30;;;;;;;13.18;100.00;101002.38;10184727;28;20515;-67
2023/04/14 12:41:47;;;;;;;6.85;6.25;;;;;;;13.51;100.00;101005.34;10176530;28;20054;-67
2023/04/14 12:46:51;;;;;;;8.48;6.18;;;;;;;13.84;100.00;100996.44;10176009;28;20054;-67
2023/04/14 12:51:48;;;;;;;6.95;5.85;;;;;;;14.13;100.00;100997.53;10184888;28;20124;-67
2023/04/14 12:56:44;;;;;;;8.38;5.90;;;;;;;14.81;100.00;101000.06;10186123;28;20065;-68
2023/04/14 13:01:41;;;;;;;7.78;6.60;;;;;;;15.31;100.00;100997.03;10181419;28;20141;-67
2023/04/14 13:06:38;;;;;;;6.82;6.10;;;;;;;14.78;100.00;100987.75;10173848;28;20499;-67
2023/04/14 13:11:34;;;;;;;6.82;6.22;;;;;;;14.36;100.00;100985.03;10178798;28;20500;-67
2023/04/14 13:16:31;;;;;;;8.75;6.00;;;;;;;14.69;100.00;100979.59;10185366;28;20077;-67
2023/04/14 13:21:28;;;;;;;7.90;7.22;;;;;;;14.49;100.00;100967.47;10174239;28;20495;-67
2023/04/14 13:26:24;;;;;;;6.57;6.05;;;;;;;14.82;100.00;100958.41;10181204;28;20264;-67
2023/04/14 13:31:21;;;;;;;8.52;5.72;;;;;;;15.51;100.00;100945.72;10186428;28;20104;-67
2023/04/14 13:36:17;;;;;;;6.63;6.00;;;;;;;16.58;100.00;100931.53;10177509;28;20423;-66
2023/04/14 13:41:14;;;;;;;7.65;6.00;;;;;;;17.03;100.00;100930.38;10183286;28;20056;-66
2023/04/14 13:46:11;;;;;;;8.63;6.40;;;;;;;16.34;100.00;100937.19;10182695;28;20566;-66
2023/04/14 13:51:08;;;;;;;8.73;6.10;;;;;;;16.80;100.00;100932.09;10188001;28;20129;-66
2023/04/14 13:56:05;;;;;;;7.28;6.55;;;;;;;16.15;100.00;100924.00;10175379;28;20499;-66
2023/04/14 14:01:09;;;;;;;8.18;6.88;;;;;;;15.87;100.00;100924.78;10182928;28;20061;-66
2023/04/14 14:06:06;;;;;;;7.93;6.38;;;;;;;17.04;100.00;100915.38;10171356;28;20088;-66
2023/04/14 14:11:06;;;;;;;8.07;6.40;;;;;;;17.35;100.00;100919.25;10181431;28;20076;-66
2023/04/14 14:16:05;;;;;;;7.10;6.00;;;;;;;15.70;100.00;100909.31;10172709;28;20061;-67
2023/04/14 14:21:03;;;;;;;7.63;6.82;;;;;;;14.84;100.00;100920.34;10185524;28;20049;-66
2023/04/14 14:25:59;;;;;;;7.03;6.32;;;;;;;14.63;100.00;100922.38;10174473;28;20082;-67
2023/04/14 14:30:56;;;;;;;6.97;6.30;;;;;;;14.06;100.00;100919.16;10176577;28;20057;-67
2023/04/14 14:35:52;;;;;;;6.60;6.03;;;;;;;13.74;100.00;100925.38;10188227;28;20580;-66
2023/04/14 14:40:49;;;;;;;8.88;6.35;;;;;;;13.71;100.00;100920.56;10174735;28;20057;-66
2023/04/14 14:45:45;;;;;;;7.00;6.40;;;;;;;13.18;100.00;100912.59;10176768;28;20097;-68
2023/04/14 14:50:42;;;;;;;7.03;6.07;;;;;;;14.19;100.00;100908.22;10180468;28;20108;-66
2023/04/14 14:55:39;;;;;;;7.38;6.68;;;;;;;14.82;100.00;100900.59;10177391;28;20047;-65
2023/04/14 15:00:35;;;;;;;6.40;5.85;;;;;;;14.46;100.00;100915.06;10169434;28;20054;-66
2023/04/14 15:05:32;;;;;;;6.00;5.18;;;;;;;14.00;100.00;100915.00;10181918;28;20042;-65
2023/04/14 15:10:29;;;;;;;6.63;5.97;;;;;;;13.70;100.00;100908.75;10177224;28;20065;-65
2023/04/14 15:15:26;;;;;;;8.23;5.70;;;;;;;13.30;100.00;100900.13;10188480;28;20057;-65
2023/04/14 15:20:22;;;;;;;7.65;6.82;;;;;;;15.28;100.00;100906.81;10177858;28;20504;-64
2023/04/14 15:25:19;;;;;;;7.90;7.10;;;;;;;14.03;100.00;100913.53;10184625;28;20065;-65
2023/04/14 15:30:16;;;;;;;7.63;6.90;;;;;;;13.83;100.00;100912.38;10183842;28;20146;-65
2023/04/14 15:35:12;;;;;;;9.00;7.57;;;;;;;13.13;100.00;100912.78;10191386;28;20069;-65
2023/04/14 15:40:09;;;;;;;8.63;7.00;;;;;;;12.75;100.00;100912.78;10190614;28;20050;-65
2023/04/14 15:45:06;;;;;;;6.72;6.03;;;;;;;13.09;100.00;100906.34;10190261;28;20515;-65
2023/04/14 15:50:03;;;;;;;6.10;5.60;;;;;;;14.72;100.00;100901.06;10187541;28;20045;-66
2023/04/14 15:55:06;;;;;;;8.20;7.50;;;;;;;15.81;100.00;100908.84;10188836;28;20060;-65
2023/04/14 16:00:06;;;;;;;7.88;7.20;;;;;;;16.17;100.00;100911.47;10182705;28;20556;-66
2023/04/14 16:05:06;;;;;;;9.68;8.40;;;;;;;15.86;100.00;100905.84;10185554;28;20054;-65
2023/04/14 16:10:03;;;;;;;10.45;7.70;;;;;;;16.28;100.00;100905.47;10186266;28;20054;-66
2023/04/14 16:14:59;;;;;;;7.55;6.95;;;;;;;15.42;100.00;100923.00;10185814;28;20662;-64
2023/04/14 16:19:56;;;;;;;7.18;6.57;;;;;;;14.36;100.00;100915.47;10184480;28;20539;-65
2023/04/14 16:24:52;;;;;;;6.72;6.13;;;;;;;15.99;100.00;100912.94;10184367;28;20054;-65
2023/04/14 16:29:49;;;;;;;7.43;6.40;;;;;;;15.58;100.00;100912.88;10182139;28;20070;-65
2023/04/14 16:34:45;;;;;;;6.50;5.90;;;;;;;15.96;100.00;100919.13;10183027;28;20502;-65
2023/04/14 16:39:42;;;;;;;6.55;6.05;;;;;;;15.80;100.00;100912.75;10188949;28;20049;-65
2023/04/14 16:44:38;;;;;;;6.20;5.70;;;;;;;16.14;100.00;100906.66;10183867;28;20050;-65
2023/04/14 16:49:35;;;;;;;6.07;5.55;;;;;;;16.04;100.00;100912.69;10182701;28;20073;-65
2023/04/14 16:54:31;;;;;;;5.85;5.35;;;;;;;15.43;100.00;100912.78;10189165;28;20096;-65
2023/04/14 16:59:28;;;;;;;7.32;6.63;;;;;;;14.25;100.00;100918.66;10179560;28;20444;-65
2023/04/14 17:04:24;;;;;;;6.93;6.35;;;;;;;13.86;100.00;100919.97;10179388;28;20096;-65
2023/04/14 17:09:22;;;;;;;6.53;5.93;;;;;;;13.26;100.00;100927.41;10179514;28;20137;-64
2023/04/14 17:14:18;;;;;;;7.18;6.47;;;;;;;12.92;100.00;100929.16;10188711;28;20069;-64
2023/04/14 17:19:15;;;;;;;7.45;6.70;;;;;;;12.48;100.00;100925.72;10189426;28;20137;-64
2023/04/14 17:24:12;;;;;;;8.10;7.30;;;;;;;12.22;100.00;100928.50;10179794;28;20128;-66
2023/04/14 17:29:09;;;;;;;7.47;6.68;;;;;;;11.57;100.00;100931.00;10179198;28;20132;-66
2023/04/14 17:34:09;;;;;;;7.78;7.07;;;;;;;11.67;100.00;100935.38;10187558;28;20076;-66
2023/04/14 17:39:07;;;;;;;8.55;7.63;;;;;;;11.23;100.00;100939.13;10176636;28;20042;-66
2023/04/14 17:44:03;;;;;;;8.35;6.97;;;;;;;10.87;100.00;100929.97;10180409;28;20054;-67
2023/04/14 17:49:00;;;;;;;8.70;7.80;;;;;;;10.51;100.00;100943.75;10181975;28;20060;-66
2023/04/14 17:53:57;;;;;;;8.55;7.65;;;;;;;10.62;100.00;100939.66;10188905;28;20166;-66
2023/04/14 17:58:54;;;;;;;11.25;8.07;;;;;;;10.55;100.00;100938.47;10187458;28;20054;-66
2023/04/14 18:03:50;;;;;;;11.60;8.50;;;;;;;10.10;100.00;100955.66;10190891;28;20050;-66
2023/04/14 18:08:47;;;;;;;9.13;7.68;;;;;;;10.00;100.00;100956.69;10183748;28;20162;-66
2023/04/14 18:13:43;;;;;;;9.38;8.38;;;;;;;9.98;100.00;100963.56;10175455;28;20042;-66
2023/04/14 18:18:40;;;;;;;8.95;7.70;;;;;;;9.71;100.00;100964.44;10183067;28;20472;-66
2023/04/14 18:23:37;;;;;;;11.05;9.25;;;;;;;9.53;100.00;100969.72;10181243;28;20056;-66
2023/04/14 18:28:34;;;;;;;11.65;10.05;;;;;;;9.46;100.00;100978.31;10168632;28;20050;-66
2023/04/14 18:33:31;;;;;;;14.73;10.68;;;;;;;9.33;100.00;100975.56;10166260;28;20053;-65
2023/04/14 18:38:27;;;;;;;12.05;10.65;;;;;;;9.08;100.00;100971.44;10180756;28;20053;-66
2023/04/14 18:43:24;;;;;;;10.38;9.38;;;;;;;9.31;100.00;100962.25;10179130;28;20500;-66
2023/04/14 18:48:20;;;;;;;11.30;10.07;;;;;;;9.22;100.00;100969.53;10182009;28;20073;-66
2023/04/14 18:53:17;;;;;;;11.77;9.80;;;;;;;9.00;100.00;100979.19;10186747;28;20092;-66
2023/04/14 18:58:13;;;;;;;13.38;10.90;;;;;;;8.91;100.00;100980.19;10189201;28;20495;-66
2023/04/14 19:03:10;;;;;;;12.30;10.80;;;;;;;8.88;100.00;100981.59;10199640;28;20116;-66
2023/04/14 19:08:06;;;;;;;14.63;12.65;;;;;;;8.85;100.00;100982.19;10193152;28;20132;-66
2023/04/14 19:13:03;;;;;;;13.02;11.50;;;;;;;8.94;100.00;100979.59;10189672;28;20607;-66
2023/04/14 19:18:00;;;;;;;14.27;11.77;;;;;;;9.22;100.00;100980.44;10187407;28;20132;-66
2023/04/14 19:22:57;;;;;;;12.98;11.25;;;;;;;9.22;100.00;100980.44;10191911;28;20100;-66
2023/04/14 19:27:54;;;;;;;13.45;11.35;;;;;;;9.33;100.00;100979.13;10187001;28;20052;-66
2023/04/14 19:32:53;;;;;;;13.45;11.40;;;;;;;9.27;100.00;100972.94;10193248;28;20069;-66
2023/04/14 19:37:54;;;;;;;12.15;10.85;;;;;;;9.22;100.00;100988.63;10173027;28;20077;-66
2023/04/14 19:42:53;;;;;;;12.18;9.50;;;;;;;9.25;100.00;100993.47;10191620;28;20053;-66
2023/04/14 19:47:50;;;;;;;10.07;8.90;;;;;;;9.33;100.00;100998.25;10184448;28;20075;-66
2023/04/14 19:52:50;;;;;;;12.70;10.30;;;;;;;9.26;100.00;100998.63;10193324;28;20062;-66
2023/04/14 19:57:46;;;;;;;11.00;9.43;;;;;;;9.26;100.00;100997.84;10188046;28;20595;-66
2023/04/14 20:02:43;;;;;;;10.00;8.88;;;;;;;8.90;100.00;100984.03;10187209;28;20149;-66
2023/04/14 20:07:40;;;;;;;10.20;8.70;;;;;;;8.64;100.00;100988.00;10179627;28;20211;-66
2023/04/14 20:12:36;;;;;;;11.23;9.13;;;;;;;8.79;100.00;100980.66;10184073;28;20518;-66
2023/04/14 20:17:33;;;;;;;12.23;9.63;;;;;;;8.54;100.00;100977.28;10188392;28;20084;-66
2023/04/14 20:22:32;;;;;;;12.43;9.60;;;;;;;8.57;100.00;100976.66;10180371;28;20049;-66
2023/04/14 20:27:28;;;;;;;11.10;9.90;;;;;;;8.59;100.00;100966.28;10175896;28;20108;-66
2023/04/14 20:32:25;;;;;;;11.40;9.48;;;;;;;8.35;100.00;100973.72;10178901;28;20124;-65
2023/04/14 20:37:22;;;;;;;13.57;10.30;;;;;;;8.47;100.00;100960.50;10185227;28;20053;-65
2023/04/14 20:42:19;;;;;;;11.35;9.73;;;;;;;8.42;100.00;100957.81;10183642;28;20136;-65
2023/04/14 20:47:15;;;;;;;10.50;8.77;;;;;;;8.53;100.00;100962.00;10190768;28;20112;-64
2023/04/14 20:52:12;;;;;;;9.90;8.43;;;;;;;8.62;100.00;100956.69;10187920;28;20049;-65
2023/04/14 20:57:08;;;;;;;11.40;8.98;;;;;;;8.67;100.00;100950.34;10188318;28;20053;-66
2023/04/14 21:02:05;;;;;;;11.38;7.68;;;;;;;8.66;100.00;100943.25;10187023;28;20511;-65
2023/04/14 21:07:02;;;;;;;9.32;8.30;;;;;;;8.36;100.00;100942.66;10174003;28;20054;-65
2023/04/14 21:11:59;;;;;;;8.68;7.63;;;;;;;8.49;100.00;100941.91;10191137;28;20560;-65
2023/04/14 21:17:12;;;;;;;10.30;8.68;;;;;;;8.38;100.00;100940.44;10173362;28;20112;-65
2023/04/14 21:22:08;;;;;;;11.30;8.68;;;;;;;8.13;100.00;100944.38;10183760;28;20499;-65
2023/04/14 21:27:05;;;;;;;10.77;9.25;;;;;;;8.32;100.00;100936.19;10185656;28;20630;-65
2023/04/14 21:32:01;;;;;;;11.27;9.10;;;;;;;8.22;100.00;100932.50;10182087;28;20125;-65
2023/04/14 21:36:58;;;;;;;11.65;8.73;;;;;;;8.31;100.00;100934.53;10187880;28;20058;-65
2023/04/14 21:41:58;;;;;;;10.52;8.75;;;;;;;8.37;100.00;100933.38;10173282;28;20140;-65
2023/04/14 21:46:54;;;;;;;13.20;9.50;;;;;;;8.28;100.00;100933.22;10179518;28;20084;-65
2023/04/14 21:51:51;;;;;;;8.95;7.97;;;;;;;8.30;100.00;100938.38;10180301;28;20057;-65
2023/04/14 21:56:48;;;;;;;10.73;9.00;;;;;;;8.42;100.00;100941.47;10183117;28;20070;-65
2023/04/14 22:01:46;;;;;;;12.75;10.07;;;;;;;8.09;100.00;100941.44;10176647;28;20050;-65
2023/04/14 22:06:42;;;;;;;12.52;8.60;;;;;;;7.94;100.00;100928.06;10185195;28;20472;-65
2023/04/14 22:11:39;;;;;;;12.93;9.32;;;;;;;7.73;100.00;100931.06;10188868;28;20084;-65
2023/04/14 22:16:36;;;;;;;9.68;8.55;;;;;;;7.95;100.00;100926.94;10179637;28;20423;-65
2023/04/14 22:21:33;;;;;;;10.95;8.40;;;;;;;7.97;100.00;100924.72;10184619;28;20084;-65
2023/04/14 22:26:30;;;;;;;10.07;8.60;;;;;;;7.87;100.00;100927.63;10178220;28;20085;-65
2023/04/14 22:31:26;;;;;;;8.90;7.97;;;;;;;7.84;100.00;100925.47;10181552;28;20050;-64
2023/04/14 22:36:23;;;;;;;10.13;8.10;;;;;;;7.86;100.00;100923.25;10171470;28;20046;-69
2023/04/14 22:41:20;;;;;;;9.70;8.10;;;;;;;7.74;100.00;100924.50;10173902;28;20088;-72